Pine Creek, Pennsylvania
Current Conditions -  °F | °C
As of 12:15 PM on Thursday 30 Oct 2014 (Local Time) from KN38 Reporting Station
Overcast Overcast  
Wind Chill: 39°   Ceiling: 2500
Heat Index: 43°   Visibility: 9mi
Dew Point: 34°   Wind: 7mph
Humidity: 70%   Direction: 340°NNW
Pressure: 30.05"   Gusts: NA
Location:  41.4373°N, 77.4136°W
Report Text: KN38 301615Z AUTO 34006KT 9SM OVC025 06/01 A3005 RMK AO2
Loading
Personal Weather Stations






























Interactive Weather Map
Tropical Storm Tracking
New forecast layout! Learn more

10-Day Weather Forecast

Advertisements
Track Severe Weather on mobile